createdAt,value
2023-02-06T00:01:53.848Z,-0.66
2023-02-06T00:04:22.875Z,-0.66
2023-02-06T00:06:53.277Z,-0.73
2023-02-06T00:09:22.280Z,-0.68
2023-02-06T00:11:51.302Z,-0.66
2023-02-06T00:14:20.357Z,-0.70
2023-02-06T00:16:50.408Z,-0.68
2023-02-06T00:19:19.473Z,-0.71
2023-02-06T00:21:48.604Z,-0.70
2023-02-06T00:24:19.018Z,-0.71
2023-02-06T00:26:48.067Z,-0.72
2023-02-06T00:29:17.150Z,-0.76
2023-02-06T00:31:46.203Z,-0.70
2023-02-06T00:34:15.332Z,-0.73
2023-02-06T00:36:44.354Z,-0.74
2023-02-06T00:39:13.406Z,-0.74
2023-02-06T00:41:44.398Z,-0.68
2023-02-06T00:44:13.477Z,-0.70
2023-02-06T00:46:42.546Z,-0.74
2023-02-06T00:49:11.637Z,-0.75
2023-02-06T00:51:40.704Z,-0.76
2023-02-06T00:54:10.463Z,-0.79
2023-02-06T00:56:39.502Z,-0.75
2023-02-06T00:59:10.920Z,-0.74
2023-02-06T01:01:41.807Z,-0.76
2023-02-06T01:04:10.872Z,-0.76
2023-02-06T01:06:40.358Z,-0.78
2023-02-06T01:09:09.488Z,-0.77
2023-02-06T01:11:38.580Z,-0.82
2023-02-06T01:14:07.635Z,-0.81
2023-02-06T01:16:38.054Z,-0.84
2023-02-06T01:19:07.093Z,-0.86
2023-02-06T01:21:36.252Z,-0.88
2023-02-06T01:24:05.692Z,-0.88
2023-02-06T01:26:34.808Z,-0.91
2023-02-06T01:29:04.873Z,-0.95
2023-02-06T01:31:34.285Z,-0.95
2023-02-06T01:34:08.085Z,-0.96
2023-02-06T01:36:38.123Z,-0.96
2023-02-06T01:39:07.759Z,-0.99
2023-02-06T01:41:37.314Z,-1.00
2023-02-06T01:44:15.745Z,-1.00
2023-02-06T01:46:46.276Z,-1.01
2023-02-06T01:49:22.129Z,-1.00
2023-02-06T01:51:55.138Z,-0.97
2023-02-06T01:54:24.576Z,-0.99
2023-02-06T01:56:57.597Z,-1.03
2023-02-06T01:59:27.666Z,-1.01
2023-02-06T02:01:57.084Z,-0.96
2023-02-06T02:04:32.625Z,-0.96
2023-02-06T02:07:08.855Z,-1.00
2023-02-06T02:09:38.833Z,-1.03
2023-02-06T02:12:08.757Z,-1.06
2023-02-06T02:14:40.399Z,-1.03
2023-02-06T02:17:25.725Z,-1.09
2023-02-06T02:20:36.472Z,-1.17
2023-02-06T02:23:30.845Z,-1.23
2023-02-06T02:26:27.372Z,-1.20
2023-02-06T02:29:29.268Z,-1.27
2023-02-06T02:32:44.058Z,-1.27
2023-02-06T02:35:30.148Z,-1.20
2023-02-06T02:38:29.199Z,-1.14
2023-02-06T02:41:05.028Z,-1.15
2023-02-06T02:43:43.929Z,-1.16
2023-02-06T02:46:20.850Z,-1.03
2023-02-06T02:48:53.088Z,-1.06
2023-02-06T02:51:24.437Z,-1.04
2023-02-06T02:53:53.546Z,-1.07
2023-02-06T02:56:25.258Z,-1.06
2023-02-06T02:59:01.579Z,-1.04
2023-02-06T03:01:34.512Z,-1.04
2023-02-06T03:04:09.106Z,-1.05
2023-02-06T03:06:57.458Z,-1.04
2023-02-06T03:09:40.253Z,-1.02
2023-02-06T03:12:19.049Z,-1.01
2023-02-06T03:14:55.992Z,-1.04
2023-02-06T03:17:34.731Z,-1.00
2023-02-06T03:20:08.804Z,-1.00
2023-02-06T03:22:40.941Z,-0.97
2023-02-06T03:25:14.455Z,-0.98
2023-02-06T03:27:44.624Z,-1.00
2023-02-06T03:30:16.184Z,-0.97
2023-02-06T03:32:48.249Z,-0.97
2023-02-06T03:35:21.762Z,-0.98
2023-02-06T03:37:52.405Z,-1.04
2023-02-06T03:40:21.936Z,-1.06
2023-02-06T03:42:56.179Z,-1.06
2023-02-06T03:45:29.682Z,-1.02
2023-02-06T03:48:02.724Z,-1.03
2023-02-06T03:50:34.402Z,-1.06
2023-02-06T03:53:06.395Z,-1.07
2023-02-06T03:55:37.749Z,-1.10
2023-02-06T03:58:11.047Z,-1.14
2023-02-06T04:00:42.600Z,-1.19
2023-02-06T04:03:12.905Z,-1.14
2023-02-06T04:05:42.266Z,-1.13
2023-02-06T04:08:12.968Z,-1.15
2023-02-06T04:10:42.007Z,-1.14
2023-02-06T04:13:11.079Z,-1.15
2023-02-06T04:15:40.102Z,-1.13
2023-02-06T04:18:09.180Z,-1.11
2023-02-06T04:20:40.809Z,-1.12
2023-02-06T04:23:11.707Z,-1.08
2023-02-06T04:25:40.812Z,-1.09
2023-02-06T04:28:10.172Z,-1.21
2023-02-06T04:30:39.316Z,-1.24
2023-02-06T04:33:08.469Z,-1.27
2023-02-06T04:35:38.198Z,-1.35
2023-02-06T04:38:07.404Z,-1.39
2023-02-06T04:40:38.266Z,-1.38
2023-02-06T04:43:07.272Z,-1.33
2023-02-06T04:45:36.525Z,-1.32
2023-02-06T04:48:06.052Z,-1.31
2023-02-06T04:50:35.136Z,-1.29
2023-02-06T04:53:04.223Z,-1.31
2023-02-06T04:55:33.263Z,-1.37
2023-02-06T04:58:03.794Z,-1.37
2023-02-06T05:00:32.882Z,-1.37
2023-02-06T05:03:01.968Z,-1.42
2023-02-06T05:05:31.059Z,-1.44
2023-02-06T05:08:00.133Z,-1.40
2023-02-06T05:10:29.243Z,-1.42
2023-02-06T05:12:58.272Z,-1.36
2023-02-06T05:15:28.761Z,-1.40
2023-02-06T05:17:57.834Z,-1.45
2023-02-06T05:20:26.962Z,-1.44
2023-02-06T05:22:56.046Z,-1.43
2023-02-06T05:25:25.578Z,-1.44
2023-02-06T05:27:54.774Z,-1.47
2023-02-06T05:30:24.053Z,-1.47
2023-02-06T05:32:54.458Z,-1.41
2023-02-06T05:35:23.705Z,-1.45
2023-02-06T05:37:52.725Z,-1.51
2023-02-06T05:40:21.953Z,-1.46
2023-02-06T05:42:51.364Z,-1.56
2023-02-06T05:45:20.515Z,-1.51
2023-02-06T05:47:49.565Z,-1.47
2023-02-06T05:50:20.198Z,-1.54
2023-02-06T05:52:49.322Z,-1.63
2023-02-06T05:55:18.468Z,-1.61
2023-02-06T05:57:47.551Z,-1.54
2023-02-06T06:00:17.344Z,-1.55
2023-02-06T06:02:46.377Z,-1.56
2023-02-06T06:05:15.419Z,-1.55
2023-02-06T06:07:45.832Z,-1.56
2023-02-06T06:10:15.184Z,-1.54
2023-02-06T06:12:44.240Z,-1.54
2023-02-06T06:15:13.419Z,-1.52
2023-02-06T06:17:42.494Z,-1.51
2023-02-06T06:20:12.360Z,-1.58
2023-02-06T06:22:41.475Z,-1.60
2023-02-06T06:25:11.877Z,-1.55
2023-02-06T06:27:41.191Z,-1.58
2023-02-06T06:30:11.777Z,-1.59
2023-02-06T06:32:40.995Z,-1.61
2023-02-06T06:35:10.343Z,-1.61
2023-02-06T06:37:39.515Z,-1.74
2023-02-06T06:40:09.357Z,-1.66
2023-02-06T06:42:39.872Z,-1.88
2023-02-06T06:45:10.204Z,-2.07
2023-02-06T06:47:39.536Z,-2.21
2023-02-06T06:50:14.035Z,-2.22
2023-02-06T06:52:43.109Z,-2.26
2023-02-06T06:55:12.651Z,-2.27
2023-02-06T06:57:43.118Z,-2.27
2023-02-06T07:00:14.074Z,-2.22
2023-02-06T07:02:44.050Z,-2.15
2023-02-06T07:05:13.651Z,-1.89
2023-02-06T07:07:42.794Z,-1.90
2023-02-06T07:10:12.934Z,-1.91
2023-02-06T07:12:43.616Z,-1.87
2023-02-06T07:15:12.661Z,-1.90
2023-02-06T07:17:41.744Z,-1.86
2023-02-06T07:20:12.853Z,-1.85
2023-02-06T07:22:43.081Z,-1.94
2023-02-06T07:25:12.200Z,-1.85
2023-02-06T07:27:42.617Z,-1.74
2023-02-06T07:30:12.650Z,-1.67
2023-02-06T07:32:41.839Z,-1.75
2023-02-06T07:35:10.932Z,-1.69
2023-02-06T07:37:39.972Z,-1.55
2023-02-06T07:40:10.143Z,-1.42
2023-02-06T07:42:40.413Z,-1.23
2023-02-06T07:45:33.493Z,-1.15
2023-02-06T07:48:04.213Z,-1.39
2023-02-06T07:50:33.903Z,-1.47
2023-02-06T07:53:03.244Z,-1.33
2023-02-06T07:55:32.263Z,-1.08
2023-02-06T07:58:01.372Z,-1.04
2023-02-06T08:00:32.128Z,-0.92
2023-02-06T08:03:01.288Z,-0.85
2023-02-06T08:05:31.162Z,-0.88
2023-02-06T08:08:00.325Z,-0.71
2023-02-06T08:10:29.482Z,-0.61
2023-02-06T08:12:58.588Z,-0.70
2023-02-06T08:15:27.734Z,-0.58
2023-02-06T08:17:58.442Z,-0.48
2023-02-06T08:20:27.518Z,-0.37
2023-02-06T08:22:57.212Z,-0.19
2023-02-06T08:25:27.375Z,-0.03
2023-02-06T08:27:57.401Z,0.11
2023-02-06T08:30:26.543Z,-0.01
2023-02-06T08:32:57.007Z,-0.03
2023-02-06T08:35:26.088Z,-0.08
2023-02-06T08:37:55.163Z,0.03
2023-02-06T08:40:24.283Z,0.08
2023-02-06T08:42:53.464Z,0.12
2023-02-06T08:45:22.491Z,0.20
2023-02-06T08:47:52.359Z,0.16
2023-02-06T08:50:22.768Z,0.10
2023-02-06T08:52:51.839Z,0.32
2023-02-06T08:55:37.729Z,0.28
2023-02-06T08:58:07.430Z,0.21
2023-02-06T09:00:36.467Z,0.01
2023-02-06T09:03:06.463Z,0.32
2023-02-06T09:05:37.216Z,0.33
2023-02-06T09:08:06.638Z,0.59
2023-02-06T09:10:35.660Z,0.25
2023-02-06T09:13:04.756Z,0.24
2023-02-06T09:15:33.898Z,0.36
2023-02-06T09:18:02.944Z,0.44
2023-02-06T09:20:31.965Z,0.45
2023-02-06T09:23:02.433Z,0.51
2023-02-06T09:25:31.470Z,0.34
2023-02-06T09:28:00.570Z,0.34
2023-02-06T09:30:29.761Z,0.57
2023-02-06T09:32:58.791Z,0.68
2023-02-06T09:35:27.826Z,0.87
2023-02-06T09:37:58.842Z,0.85
2023-02-06T09:40:31.882Z,0.53
2023-02-06T09:43:02.406Z,0.59
2023-02-06T09:45:33.140Z,0.76
2023-02-06T09:48:15.579Z,0.56
2023-02-06T09:50:56.610Z,0.70
2023-02-06T09:53:31.099Z,0.66
2023-02-06T09:56:16.459Z,0.76
2023-02-06T09:58:49.815Z,0.84
2023-02-06T10:01:25.592Z,0.90
2023-02-06T10:04:19.834Z,0.90
2023-02-06T10:06:55.147Z,0.92
2023-02-06T10:09:31.422Z,1.03
2023-02-06T10:12:06.046Z,0.89
2023-02-06T10:14:42.759Z,0.97
2023-02-06T10:17:21.039Z,1.03
2023-02-06T10:19:57.997Z,0.99
2023-02-06T10:22:32.436Z,1.17
2023-02-06T10:25:20.542Z,1.33
2023-02-06T10:27:57.557Z,1.40
2023-02-06T10:30:39.893Z,1.63
2023-02-06T10:33:25.307Z,1.27
2023-02-06T10:36:04.853Z,1.26
2023-02-06T10:38:51.417Z,1.68
2023-02-06T10:41:29.860Z,1.65
2023-02-06T10:44:07.061Z,1.59
2023-02-06T10:46:44.739Z,1.37
2023-02-06T10:49:24.833Z,1.49
2023-02-06T10:51:56.917Z,1.39
2023-02-06T10:54:32.676Z,1.46
2023-02-06T10:57:03.067Z,1.74
2023-02-06T10:59:35.340Z,1.81
2023-02-06T11:02:22.131Z,1.43
2023-02-06T11:04:56.504Z,1.28
2023-02-06T11:07:30.690Z,1.64
2023-02-06T11:10:00.248Z,1.67
2023-02-06T11:12:35.770Z,1.51
2023-02-06T11:15:16.399Z,1.57
2023-02-06T11:17:46.216Z,1.67
2023-02-06T11:20:21.796Z,1.70
2023-02-06T11:22:53.379Z,1.69
2023-02-06T11:25:28.272Z,1.62
2023-02-06T11:27:59.013Z,1.72
2023-02-06T11:30:38.067Z,1.92
2023-02-06T11:33:09.051Z,1.71
2023-02-06T11:35:41.396Z,1.66
2023-02-06T11:38:20.755Z,1.73
2023-02-06T11:40:58.039Z,1.60
2023-02-06T11:43:34.217Z,1.71
2023-02-06T11:46:17.171Z,1.85
2023-02-06T11:48:48.367Z,2.03
2023-02-06T11:51:17.775Z,1.84
2023-02-06T11:53:58.900Z,1.91
2023-02-06T11:56:29.126Z,2.01
2023-02-06T11:59:07.444Z,2.04
2023-02-06T12:01:44.781Z,2.12
2023-02-06T12:04:23.889Z,2.07
2023-02-06T12:06:59.398Z,2.08
2023-02-06T12:09:28.971Z,2.21
2023-02-06T12:12:04.572Z,2.18
2023-02-06T12:14:39.353Z,2.36
2023-02-06T12:17:23.625Z,2.45
2023-02-06T12:19:59.645Z,2.33
2023-02-06T12:22:28.690Z,2.19
2023-02-06T12:25:00.105Z,2.46
2023-02-06T12:27:34.745Z,2.54
2023-02-06T12:30:20.332Z,2.52
2023-02-06T12:32:55.101Z,2.48
2023-02-06T12:35:34.285Z,2.64
2023-02-06T12:38:08.401Z,2.55
2023-02-06T12:40:48.597Z,2.56
2023-02-06T12:43:19.333Z,2.66
2023-02-06T12:45:55.263Z,2.54
2023-02-06T12:48:36.969Z,2.57
2023-02-06T12:51:13.446Z,2.54
2023-02-06T12:53:46.961Z,2.33
2023-02-06T12:56:26.378Z,2.53
2023-02-06T12:59:02.797Z,2.68
2023-02-06T13:01:49.998Z,2.70
2023-02-06T13:04:24.556Z,2.99
2023-02-06T13:06:57.694Z,3.32
2023-02-06T13:09:32.295Z,2.94
2023-02-06T13:12:12.419Z,3.11
2023-02-06T13:14:49.064Z,3.26
2023-02-06T13:17:21.354Z,3.05
2023-02-06T13:20:10.883Z,3.76
2023-02-06T13:22:51.086Z,3.22
2023-02-06T13:25:53.712Z,3.38
2023-02-06T13:28:43.391Z,3.56
2023-02-06T13:31:29.294Z,3.51
2023-02-06T13:34:18.572Z,3.57
2023-02-06T13:36:54.567Z,3.93
2023-02-06T13:39:37.677Z,4.01
2023-02-06T13:42:42.579Z,4.85
2023-02-06T13:45:20.864Z,4.88
2023-02-06T13:48:25.615Z,4.73
2023-02-06T13:51:16.786Z,5.01
2023-02-06T13:54:18.315Z,4.02
2023-02-06T13:57:09.434Z,3.70
2023-02-06T13:59:42.818Z,4.15
2023-02-06T14:02:19.735Z,4.73
2023-02-06T14:04:51.198Z,5.01
2023-02-06T14:07:46.249Z,4.79
2023-02-06T14:10:27.292Z,4.45
2023-02-06T14:13:15.100Z,3.95
2023-02-06T14:15:54.209Z,4.43
2023-02-06T14:18:38.171Z,4.39
2023-02-06T14:21:23.084Z,4.79
2023-02-06T14:24:16.719Z,4.67
2023-02-06T14:26:55.936Z,5.45
2023-02-06T14:29:36.555Z,5.29
2023-02-06T14:32:23.564Z,4.64
2023-02-06T14:35:14.982Z,4.55
2023-02-06T14:37:57.720Z,4.59
2023-02-06T14:40:28.910Z,4.58
2023-02-06T14:43:03.189Z,4.35
2023-02-06T14:45:42.033Z,4.10
2023-02-06T14:48:22.685Z,3.42
2023-02-06T14:50:56.333Z,3.45
2023-02-06T14:53:30.194Z,3.26
2023-02-06T14:56:15.669Z,3.32
2023-02-06T14:58:46.361Z,3.62
2023-02-06T15:01:23.336Z,3.79
2023-02-06T15:03:54.666Z,3.64
2023-02-06T15:06:36.464Z,3.38
2023-02-06T15:09:08.182Z,3.17
2023-02-06T15:11:37.475Z,3.11
2023-02-06T15:14:21.162Z,2.87
2023-02-06T15:16:52.869Z,2.72
2023-02-06T15:19:24.158Z,2.76
2023-02-06T15:21:58.024Z,2.75
2023-02-06T15:24:45.851Z,2.54
2023-02-06T15:27:24.398Z,2.38
2023-02-06T15:29:54.160Z,2.42
2023-02-06T15:32:35.426Z,2.40
2023-02-06T15:35:07.605Z,2.38
2023-02-06T15:37:37.334Z,2.33
2023-02-06T15:40:10.383Z,2.32
2023-02-06T15:42:39.730Z,2.25
2023-02-06T15:45:12.674Z,2.21
2023-02-06T15:47:44.426Z,2.17
2023-02-06T15:50:19.552Z,2.07
2023-02-06T15:52:48.952Z,1.99
2023-02-06T15:55:30.034Z,1.90
2023-02-06T15:58:01.479Z,1.87
2023-02-06T16:00:33.502Z,1.80
2023-02-06T16:03:06.516Z,1.75
2023-02-06T16:05:40.475Z,1.77
2023-02-06T16:08:14.468Z,1.64
2023-02-06T16:10:45.336Z,1.60
2023-02-06T16:13:20.548Z,1.47
2023-02-06T16:16:19.415Z,1.34
2023-02-06T16:18:52.197Z,1.26
2023-02-06T16:21:27.956Z,1.28
2023-02-06T16:24:07.505Z,1.26
2023-02-06T16:26:46.912Z,1.23
2023-02-06T16:29:24.429Z,1.24
2023-02-06T16:32:02.359Z,1.04
2023-02-06T16:34:39.286Z,0.88
2023-02-06T16:37:12.861Z,0.71
2023-02-06T16:39:43.278Z,0.66
2023-02-06T16:42:17.928Z,0.57
2023-02-06T16:44:50.035Z,0.58
2023-02-06T16:47:21.069Z,0.53
2023-02-06T16:49:52.092Z,0.56
2023-02-06T16:52:25.440Z,0.42
2023-02-06T16:54:55.696Z,0.35
2023-02-06T16:57:29.319Z,0.43
2023-02-06T16:59:59.024Z,0.40
2023-02-06T17:02:32.205Z,0.26
2023-02-06T17:05:02.631Z,0.17
2023-02-06T17:07:34.994Z,-0.01
2023-02-06T17:10:04.423Z,0.02
2023-02-06T17:12:33.623Z,0.03
2023-02-06T17:15:02.809Z,-0.02
2023-02-06T17:17:31.894Z,-0.08
2023-02-06T17:20:02.324Z,-0.15
2023-02-06T17:22:31.396Z,-0.21
2023-02-06T17:25:00.619Z,-0.27
2023-02-06T17:27:29.882Z,-0.37
2023-02-06T17:29:59.438Z,-0.35
2023-02-06T17:32:28.734Z,-0.34
2023-02-06T17:35:01.418Z,-0.36
2023-02-06T17:37:32.755Z,-0.68
2023-02-06T17:40:02.227Z,-0.59
2023-02-06T17:42:32.732Z,-0.45
2023-02-06T17:45:02.191Z,-0.51
2023-02-06T17:47:31.311Z,-0.60
2023-02-06T17:50:01.860Z,-0.60
2023-02-06T17:52:32.566Z,-0.61
2023-02-06T17:55:01.724Z,-0.69
2023-02-06T17:57:32.255Z,-0.82
2023-02-06T18:00:01.348Z,-0.79
2023-02-06T18:02:30.471Z,-0.62
2023-02-06T18:05:00.821Z,-0.74
2023-02-06T18:07:31.231Z,-0.85
2023-02-06T18:10:00.379Z,-0.91
2023-02-06T18:12:29.511Z,-0.91
2023-02-06T18:14:59.026Z,-0.90
2023-02-06T18:17:28.156Z,-0.88
2023-02-06T18:19:57.483Z,-0.96
2023-02-06T18:22:26.935Z,-1.04
2023-02-06T18:25:05.279Z,-1.23
2023-02-06T18:27:35.095Z,-1.34
2023-02-06T18:30:05.402Z,-1.38
2023-02-06T18:32:39.572Z,-1.26
2023-02-06T18:35:10.085Z,-1.18
2023-02-06T18:37:39.272Z,-1.13
2023-02-06T18:40:10.938Z,-1.18
2023-02-06T18:42:53.728Z,-1.29
2023-02-06T18:45:24.830Z,-1.28
2023-02-06T18:47:57.257Z,-1.31
2023-02-06T18:50:26.508Z,-1.40
2023-02-06T18:52:56.498Z,-1.52
2023-02-06T18:55:27.508Z,-1.56
2023-02-06T18:57:56.732Z,-1.49
2023-02-06T19:00:30.632Z,-1.52
2023-02-06T19:03:02.812Z,-1.60
2023-02-06T19:05:40.446Z,-1.63
2023-02-06T19:08:10.725Z,-1.62
2023-02-06T19:10:44.052Z,-1.65
2023-02-06T19:13:14.148Z,-1.60
2023-02-06T19:15:43.784Z,-1.58
2023-02-06T19:18:15.675Z,-1.49
2023-02-06T19:20:48.550Z,-1.54
2023-02-06T19:23:19.105Z,-1.56
2023-02-06T19:25:59.294Z,-1.55
2023-02-06T19:28:31.111Z,-1.47
2023-02-06T19:31:01.969Z,-1.45
2023-02-06T19:33:34.844Z,-1.47
2023-02-06T19:36:08.131Z,-1.57
2023-02-06T19:38:38.037Z,-1.61
2023-02-06T19:41:13.684Z,-1.70
2023-02-06T19:43:46.596Z,-1.72
2023-02-06T19:46:18.728Z,-1.73
2023-02-06T19:48:49.898Z,-1.79
2023-02-06T19:51:21.927Z,-1.88
2023-02-06T19:53:54.685Z,-1.85
2023-02-06T19:56:28.247Z,-1.90
2023-02-06T19:58:59.125Z,-1.92
2023-02-06T20:01:30.693Z,-1.90
2023-02-06T20:04:01.045Z,-1.87
2023-02-06T20:06:34.977Z,-1.85
2023-02-06T20:09:05.286Z,-1.85
2023-02-06T20:11:36.008Z,-1.94
2023-02-06T20:14:05.807Z,-1.92
2023-02-06T20:16:37.917Z,-1.98
2023-02-06T20:19:08.946Z,-2.05
2023-02-06T20:21:41.856Z,-2.15
2023-02-06T20:24:15.334Z,-2.14
2023-02-06T20:26:48.710Z,-2.26
2023-02-06T20:29:22.621Z,-2.27
2023-02-06T20:31:52.597Z,-2.35
2023-02-06T20:34:22.735Z,-2.42
2023-02-06T20:36:52.289Z,-2.51
2023-02-06T20:39:21.609Z,-2.59
2023-02-06T20:41:52.079Z,-2.55
2023-02-06T20:44:21.886Z,-2.50
2023-02-06T20:46:51.346Z,-2.51
2023-02-06T20:49:31.374Z,-2.54
2023-02-06T20:52:01.134Z,-2.49
2023-02-06T20:54:31.178Z,-2.48
2023-02-06T20:57:01.748Z,-2.54
2023-02-06T20:59:30.996Z,-2.56
2023-02-06T21:02:00.631Z,-2.64
2023-02-06T21:04:34.323Z,-2.63
2023-02-06T21:07:03.788Z,-2.64
2023-02-06T21:09:33.135Z,-2.65
2023-02-06T21:12:03.927Z,-2.69
2023-02-06T21:14:33.055Z,-2.68
2023-02-06T21:17:02.208Z,-2.65
2023-02-06T21:19:31.396Z,-2.64
2023-02-06T21:22:00.655Z,-2.66
2023-02-06T21:24:29.783Z,-2.57
2023-02-06T21:26:58.947Z,-2.51
2023-02-06T21:29:29.508Z,-2.55
2023-02-06T21:32:12.550Z,-2.56
2023-02-06T21:34:43.239Z,-2.38
2023-02-06T21:37:12.550Z,-2.40
2023-02-06T21:39:42.412Z,-2.24
2023-02-06T21:42:14.884Z,-2.00
2023-02-06T21:44:45.590Z,-1.94
2023-02-06T21:47:15.004Z,-1.85
2023-02-06T21:49:44.087Z,-1.61
2023-02-06T21:52:13.154Z,-1.51
2023-02-06T21:54:42.252Z,-1.49
2023-02-06T21:57:11.308Z,-1.62
2023-02-06T21:59:40.909Z,-1.59
2023-02-06T22:02:13.431Z,-1.63
2023-02-06T22:04:42.460Z,-1.71
2023-02-06T22:07:13.198Z,-1.75
2023-02-06T22:09:42.487Z,-1.70
2023-02-06T22:12:11.610Z,-1.61
2023-02-06T22:14:40.666Z,-1.75
2023-02-06T22:17:09.844Z,-1.94
2023-02-06T22:19:40.296Z,-1.97
2023-02-06T22:22:09.333Z,-2.00
2023-02-06T22:24:38.408Z,-2.03
2023-02-06T22:27:08.141Z,-2.10
2023-02-06T22:29:37.416Z,-2.14
2023-02-06T22:32:07.316Z,-2.20
2023-02-06T22:34:36.423Z,-2.31
2023-02-06T22:37:06.852Z,-2.37
2023-02-06T22:39:35.920Z,-2.44
2023-02-06T22:42:05.076Z,-2.53
2023-02-06T22:44:34.143Z,-2.43
2023-02-06T22:47:03.353Z,-2.37
2023-02-06T22:49:32.453Z,-2.23
2023-02-06T22:52:01.537Z,-2.22
2023-02-06T22:54:31.924Z,-2.10
2023-02-06T22:57:00.998Z,-2.21
2023-02-06T22:59:30.034Z,-2.12
2023-02-06T23:01:59.845Z,-2.02
2023-02-06T23:04:30.292Z,-1.87
2023-02-06T23:06:59.420Z,-2.06
2023-02-06T23:09:32.126Z,-2.03
2023-02-06T23:12:02.097Z,-1.95
2023-02-06T23:14:33.498Z,-1.99
2023-02-06T23:17:03.899Z,-2.08
2023-02-06T23:19:33.150Z,-2.11
2023-02-06T23:22:02.263Z,-1.87
2023-02-06T23:24:32.745Z,-1.84
2023-02-06T23:27:01.815Z,-1.88
2023-02-06T23:29:31.049Z,-1.94
2023-02-06T23:32:00.115Z,-2.02
2023-02-06T23:34:29.217Z,-1.97
2023-02-06T23:36:58.226Z,-2.12
2023-02-06T23:39:27.297Z,-2.28
2023-02-06T23:41:57.726Z,-2.27
2023-02-06T23:44:26.801Z,-2.30
2023-02-06T23:46:56.097Z,-2.42
2023-02-06T23:49:25.183Z,-2.49
2023-02-06T23:51:54.244Z,-2.50
2023-02-06T23:54:23.348Z,-2.43
2023-02-06T23:56:52.394Z,-2.60
2023-02-06T23:59:22.836Z,-2.57
